Time;durP1;ratioP1;P1;durP2;ratioP2;P2;SDS_P1;SDS_P2;PMS_P1;PMS_P2;Temp;Humidity;BMP_temperature;BMP_pressure;BME280_temperature;BME280_humidity;BME280_pressure;Samples;Min_cycle;Max_cycle;Signal;HPM_P1;HPM_P2
2021/05/26 00:00:24;;;;;;;7.70;3.17;;;9.40;99.90;;;;;;3575019;40;20056;-87
2021/05/26 00:02:50;;;;;;;8.77;3.20;;;9.40;99.90;;;;;;3575064;40;20060;-87
2021/05/26 00:05:16;;;;;;;8.35;2.50;;;9.50;99.90;;;;;;3574973;40;20049;-86
2021/05/26 00:07:41;;;;;;;10.60;3.08;;;9.50;99.90;;;;;;3574284;40;20053;-86
2021/05/26 00:10:08;;;;;;;9.23;2.50;;;9.50;99.90;;;;;;3574961;40;20156;-86
2021/05/26 00:12:34;;;;;;;6.40;2.72;;;9.50;99.90;;;;;;3574870;40;20053;-85
2021/05/26 00:15:00;;;;;;;6.10;2.85;;;9.50;99.90;;;;;;3575188;40;20049;-87
2021/05/26 00:17:26;;;;;;;6.05;2.30;;;9.50;99.90;;;;;;3575192;40;20049;-85
2021/05/26 00:19:52;;;;;;;6.97;2.42;;;9.40;99.90;;;;;;3575368;40;20316;-86
2021/05/26 00:22:17;;;;;;;10.55;3.22;;;9.40;99.90;;;;;;3573950;40;20067;-87
2021/05/26 00:24:43;;;;;;;8.55;3.47;;;9.40;99.90;;;;;;3575858;40;20048;-86
2021/05/26 00:27:08;;;;;;;8.63;2.88;;;9.30;99.90;;;;;;3574711;40;20052;-86
2021/05/26 00:29:34;;;;;;;9.05;2.90;;;9.40;99.90;;;;;;3575456;40;20057;-87
2021/05/26 00:32:00;;;;;;;5.95;2.45;;;9.30;99.90;;;;;;3574628;40;20088;-88
2021/05/26 00:34:26;;;;;;;11.35;2.70;;;9.40;99.90;;;;;;3573743;40;20135;-87
2021/05/26 00:36:52;;;;;;;5.55;2.30;;;9.40;99.90;;;;;;3574658;40;20056;-87
2021/05/26 00:39:18;;;;;;;8.68;2.72;;;9.40;99.90;;;;;;3573875;40;20049;-85
2021/05/26 00:41:43;;;;;;;6.43;2.88;;;9.40;99.90;;;;;;3574611;40;20398;-85
2021/05/26 00:44:14;;;;;;;7.82;2.92;;;9.20;99.90;;;;;;3574318;40;20631;-87
2021/05/26 00:46:45;;;;;;;6.38;2.80;;;9.10;99.90;;;;;;3572981;40;20308;-86
2021/05/26 00:49:11;;;;;;;7.63;3.15;;;9.10;99.90;;;;;;3575248;40;20323;-87
2021/05/26 00:51:37;;;;;;;8.25;3.55;;;9.00;99.90;;;;;;3574836;40;20049;-87
2021/05/26 00:54:04;;;;;;;8.15;2.92;;;9.00;99.90;;;;;;3574932;40;20065;-88
2021/05/26 00:56:32;;;;;;;11.55;3.42;;;8.90;99.90;;;;;;3573514;40;20126;-87
2021/05/26 00:58:58;;;;;;;5.50;3.03;;;8.80;99.90;;;;;;3575435;40;20756;-88
2021/05/26 01:01:23;;;;;;;11.68;3.40;;;8.60;99.90;;;;;;3574197;40;20045;-88
2021/05/26 01:03:49;;;;;;;11.60;4.05;;;8.50;99.90;;;;;;3574308;40;20198;-88
2021/05/26 01:06:15;;;;;;;8.25;3.70;;;8.60;99.90;;;;;;3573907;40;20057;-86
2021/05/26 01:08:40;;;;;;;10.27;3.92;;;8.60;99.90;;;;;;3574235;40;20049;-86
2021/05/26 01:11:06;;;;;;;5.25;4.22;;;8.60;99.90;;;;;;3574445;40;20064;-89
2021/05/26 01:13:33;;;;;;;7.95;3.97;;;8.60;99.90;;;;;;3575409;40;20061;-87
2021/05/26 01:15:59;;;;;;;6.93;4.28;;;8.70;99.90;;;;;;3573524;40;20053;-87
2021/05/26 01:18:26;;;;;;;11.25;5.35;;;8.60;99.90;;;;;;3574454;40;20069;-88
2021/05/26 01:20:55;;;;;;;8.07;4.40;;;8.70;99.90;;;;;;3575030;40;20389;-86
2021/05/26 01:23:21;;;;;;;8.02;5.07;;;8.70;99.90;;;;;;3574612;40;20309;-87
2021/05/26 01:25:50;;;;;;;14.25;4.50;;;8.80;99.90;;;;;;3574840;40;20048;-86
2021/05/26 01:28:16;;;;;;;8.60;5.05;;;8.80;99.90;;;;;;3573815;40;20340;-85
2021/05/26 01:30:44;;;;;;;9.07;4.85;;;8.80;99.90;;;;;;3575686;40;20061;-86
2021/05/26 01:33:09;;;;;;;8.93;5.55;;;8.90;99.90;;;;;;3575613;40;20060;-86
2021/05/26 01:35:42;;;;;;;12.43;5.40;;;8.90;99.90;;;;;;3575736;40;20061;-85
2021/05/26 01:38:20;;;;;;;12.23;5.63;;;8.90;99.90;;;;;;3575065;40;20092;-86
2021/05/26 01:40:47;;;;;;;10.43;5.95;;;8.90;99.90;;;;;;3575940;40;20052;-85
2021/05/26 01:43:13;;;;;;;10.70;6.03;;;9.00;99.90;;;;;;3575886;40;20416;-87
2021/05/26 01:45:39;;;;;;;11.48;6.20;;;9.00;99.90;;;;;;3575629;40;20057;-86
2021/05/26 01:48:05;;;;;;;12.60;7.22;;;9.00;99.90;;;;;;3574817;40;20052;-86
2021/05/26 01:50:31;;;;;;;13.98;8.45;;;9.00;99.90;;;;;;3575698;40;20054;-86
2021/05/26 01:53:08;;;;;;;17.38;8.73;;;9.00;99.90;;;;;;3573595;40;20044;-86
2021/05/26 01:55:38;;;;;;;11.88;8.60;;;9.10;99.90;;;;;;3573311;40;20448;-86
2021/05/26 01:58:04;;;;;;;13.73;9.02;;;9.10;99.90;;;;;;3574521;40;20056;-86
2021/05/26 02:00:31;;;;;;;11.27;9.05;;;9.10;99.90;;;;;;3573460;40;20061;-86
2021/05/26 02:02:56;;;;;;;12.77;9.27;;;9.20;99.90;;;;;;3574323;40;20065;-87
2021/05/26 02:05:22;;;;;;;15.07;9.55;;;9.20;99.90;;;;;;3573909;40;20146;-86
2021/05/26 02:07:48;;;;;;;13.73;9.25;;;9.20;99.90;;;;;;3574295;40;20331;-86
2021/05/26 02:10:17;;;;;;;10.68;8.52;;;9.20;99.90;;;;;;3574070;40;20096;-86
2021/05/26 02:12:44;;;;;;;12.48;8.77;;;9.20;99.90;;;;;;3573912;40;20275;-85
2021/05/26 02:15:13;;;;;;;12.23;8.38;;;9.20;99.90;;;;;;3574207;40;20478;-86
2021/05/26 02:17:39;;;;;;;9.48;8.43;;;9.20;99.90;;;;;;3572426;40;20448;-85
2021/05/26 02:20:07;;;;;;;14.98;9.60;;;9.20;99.90;;;;;;3574427;40;20336;-85
2021/05/26 02:22:34;;;;;;;10.85;8.35;;;9.20;99.90;;;;;;3571986;40;20053;-86
2021/05/26 02:25:01;;;;;;;12.90;8.70;;;9.10;99.90;;;;;;3573933;40;20321;-85
2021/05/26 02:27:27;;;;;;;14.10;7.93;;;9.20;99.90;;;;;;3572843;40;20102;-84
2021/05/26 02:29:53;;;;;;;10.48;7.78;;;9.30;99.90;;;;;;3575492;40;20048;-86
2021/05/26 02:32:20;;;;;;;11.63;8.32;;;9.30;99.90;;;;;;3575156;40;20048;-86
2021/05/26 02:34:46;;;;;;;12.40;8.35;;;9.40;99.90;;;;;;3576067;40;20060;-85
2021/05/26 02:37:12;;;;;;;15.88;7.43;;;9.40;99.90;;;;;;3575299;40;20049;-89
2021/05/26 02:39:38;;;;;;;7.35;6.50;;;9.40;99.90;;;;;;3575383;40;20052;-87
2021/05/26 02:42:04;;;;;;;8.48;6.63;;;9.60;99.90;;;;;;3576180;40;20112;-87
2021/05/26 02:44:30;;;;;;;9.20;5.40;;;9.70;99.90;;;;;;3574420;40;20044;-87
2021/05/26 02:46:55;;;;;;;10.98;5.55;;;9.70;99.90;;;;;;3575458;40;20515;-87
2021/05/26 02:49:21;;;;;;;10.02;5.10;;;9.70;99.90;;;;;;3575545;40;20049;-86
2021/05/26 02:51:47;;;;;;;8.95;5.47;;;9.80;99.90;;;;;;3574975;40;20317;-86
2021/05/26 02:54:12;;;;;;;11.40;4.95;;;9.80;99.90;;;;;;3575653;40;20545;-85
2021/05/26 02:56:38;;;;;;;7.68;4.43;;;9.90;99.90;;;;;;3575229;40;20060;-87
2021/05/26 02:59:07;;;;;;;9.18;3.97;;;9.80;99.90;;;;;;3575869;40;20053;-87
2021/05/26 03:01:35;;;;;;;6.35;3.50;;;9.80;99.90;;;;;;3574722;40;20084;-84
2021/05/26 03:04:01;;;;;;;13.93;4.53;;;9.80;99.90;;;;;;3575081;40;20142;-86
2021/05/26 03:06:27;;;;;;;10.75;4.18;;;9.80;99.90;;;;;;3577833;40;20055;-86
2021/05/26 03:08:53;;;;;;;7.88;3.90;;;9.80;99.90;;;;;;3579769;40;20052;-86
2021/05/26 03:11:18;;;;;;;9.10;3.42;;;9.80;99.90;;;;;;3579008;40;20072;-86
2021/05/26 03:13:44;;;;;;;8.65;3.60;;;9.70;99.90;;;;;;3577552;40;20048;-85
2021/05/26 03:16:10;;;;;;;6.20;2.97;;;9.80;99.90;;;;;;3586732;40;20036;-85
2021/05/26 03:18:37;;;;;;;9.25;3.15;;;9.80;99.90;;;;;;3584243;40;20432;-85
2021/05/26 03:21:03;;;;;;;7.65;3.53;;;9.70;99.90;;;;;;3585663;39;20056;-85
2021/05/26 03:23:29;;;;;;;6.15;3.20;;;9.70;99.90;;;;;;3585688;40;20052;-85
2021/05/26 03:25:55;;;;;;;12.23;3.72;;;9.70;99.90;;;;;;3575095;40;20347;-86
2021/05/26 03:28:21;;;;;;;6.55;3.30;;;9.70;99.90;;;;;;3575515;40;20323;-86
2021/05/26 03:30:47;;;;;;;7.20;3.60;;;9.60;99.90;;;;;;3575275;40;20458;-85
2021/05/26 03:33:14;;;;;;;8.02;3.38;;;9.60;99.90;;;;;;3576033;40;20479;-84
2021/05/26 03:35:41;;;;;;;7.68;3.38;;;9.60;99.90;;;;;;3576215;40;20048;-86
2021/05/26 03:38:08;;;;;;;7.00;3.00;;;9.60;99.90;;;;;;3575678;40;20081;-86
2021/05/26 03:40:36;;;;;;;9.15;3.95;;;9.50;99.90;;;;;;3576464;40;20064;-85
2021/05/26 03:43:03;;;;;;;5.65;3.10;;;9.60;99.90;;;;;;3575279;40;20101;-88
2021/05/26 03:45:31;;;;;;;7.82;3.25;;;9.50;99.90;;;;;;3577458;40;20138;-86
2021/05/26 03:47:57;;;;;;;8.48;3.20;;;9.40;99.90;;;;;;3577010;40;20053;-87
2021/05/26 03:50:24;;;;;;;5.07;3.03;;;9.50;99.90;;;;;;3576071;40;20340;-86
2021/05/26 03:52:51;;;;;;;6.85;3.13;;;9.50;99.90;;;;;;3575049;40;20064;-87
2021/05/26 03:55:18;;;;;;;6.15;2.50;;;9.70;99.90;;;;;;3575726;40;20080;-86
2021/05/26 03:57:45;;;;;;;7.43;3.03;;;9.70;99.90;;;;;;3575710;40;20376;-85
2021/05/26 04:00:13;;;;;;;5.25;2.40;;;9.80;99.90;;;;;;3576919;40;20064;-88
2021/05/26 04:02:38;;;;;;;2.80;1.98;;;9.90;99.90;;;;;;3576117;40;20234;-85
2021/05/26 04:05:06;;;;;;;4.53;2.00;;;10.20;99.90;;;;;;3576756;40;20335;-87
2021/05/26 04:07:37;;;;;;;7.07;2.17;;;10.40;99.90;;;;;;3576427;40;20170;-86
2021/05/26 04:10:04;;;;;;;14.32;2.60;;;10.50;99.90;;;;;;3577143;40;20227;-86
2021/05/26 04:12:30;;;;;;;8.48;2.60;;;10.70;99.90;;;;;;3575870;40;20045;-87
2021/05/26 04:14:56;;;;;;;12.70;5.82;;;10.60;99.90;;;;;;3576012;40;20285;-85
2021/05/26 04:17:23;;;;;;;5.45;3.35;;;10.80;99.90;;;;;;3574910;40;20053;-87
2021/05/26 04:19:48;;;;;;;4.35;2.30;;;10.80;99.90;;;;;;3576347;40;20071;-86
2021/05/26 04:22:14;;;;;;;6.20;2.15;;;10.60;99.90;;;;;;3573716;40;20048;-87
2021/05/26 04:24:40;;;;;;;5.80;2.45;;;10.60;99.90;;;;;;3573999;40;20053;-86
2021/05/26 04:27:06;;;;;;;6.68;1.98;;;10.70;99.90;;;;;;3574498;40;20053;-87
2021/05/26 04:29:33;;;;;;;3.40;1.42;;;10.80;99.90;;;;;;3574928;40;20382;-87
2021/05/26 04:31:59;;;;;;;12.00;1.90;;;10.90;99.90;;;;;;3575925;40;20060;-88
2021/05/26 04:34:24;;;;;;;6.35;2.05;;;10.90;99.90;;;;;;3576505;40;20056;-86
2021/05/26 04:36:50;;;;;;;4.75;2.22;;;10.90;99.90;;;;;;3574993;40;20052;-85
2021/05/26 04:39:16;;;;;;;3.33;1.63;;;10.80;99.90;;;;;;3573859;40;20089;-86
2021/05/26 04:41:43;;;;;;;8.35;2.25;;;10.80;99.90;;;;;;3573962;40;20122;-87
2021/05/26 04:44:09;;;;;;;7.32;2.20;;;10.90;99.90;;;;;;3576637;40;20600;-86
2021/05/26 04:46:35;;;;;;;8.52;2.35;;;10.90;99.90;;;;;;3575191;40;20053;-86
2021/05/26 04:49:01;;;;;;;9.77;2.28;;;10.80;99.90;;;;;;3574725;40;20060;-86
2021/05/26 04:51:27;;;;;;;10.25;2.80;;;11.00;99.90;;;;;;3572817;40;20061;-88
2021/05/26 04:53:53;;;;;;;4.10;1.95;;;10.90;99.90;;;;;;3574673;40;20134;-85
2021/05/26 04:56:19;;;;;;;9.93;3.35;;;11.00;99.90;;;;;;3575061;40;20076;-87
2021/05/26 04:58:45;;;;;;;6.32;2.38;;;11.00;99.90;;;;;;3575522;40;20306;-87
2021/05/26 05:01:10;;;;;;;3.95;2.38;;;11.00;99.90;;;;;;3574958;40;20055;-86
2021/05/26 05:03:36;;;;;;;4.13;2.22;;;11.10;99.90;;;;;;3574362;40;20049;-87
2021/05/26 05:06:02;;;;;;;3.88;2.40;;;11.10;99.90;;;;;;3574958;40;20323;-87
2021/05/26 05:08:28;;;;;;;5.78;2.70;;;11.10;99.90;;;;;;3574646;40;20045;-87
2021/05/26 05:10:55;;;;;;;4.97;2.63;;;11.10;99.90;;;;;;3574374;40;20426;-87
2021/05/26 05:13:21;;;;;;;3.80;2.08;;;11.00;99.90;;;;;;3575938;40;20108;-87
2021/05/26 05:15:47;;;;;;;7.10;2.65;;;11.10;99.90;;;;;;3575272;40;20142;-87
2021/05/26 05:18:12;;;;;;;7.22;2.28;;;11.20;99.90;;;;;;3575896;40;20069;-85
2021/05/26 05:20:38;;;;;;;4.55;2.10;;;11.20;99.90;;;;;;3575646;40;20419;-85
2021/05/26 05:23:04;;;;;;;6.00;2.45;;;11.30;99.90;;;;;;3574998;40;20060;-85
2021/05/26 05:25:30;;;;;;;4.80;2.83;;;11.40;99.90;;;;;;3575171;40;20406;-87
2021/05/26 05:27:56;;;;;;;3.30;2.50;;;11.40;99.90;;;;;;3574470;40;20323;-86
2021/05/26 05:30:23;;;;;;;6.93;2.70;;;11.40;99.90;;;;;;3574572;40;20134;-86
2021/05/26 05:32:48;;;;;;;2.63;1.95;;;11.40;99.90;;;;;;3573703;40;20053;-86
2021/05/26 05:35:14;;;;;;;6.20;2.28;;;11.30;99.90;;;;;;3573672;40;20068;-85
2021/05/26 05:37:40;;;;;;;7.60;2.78;;;11.50;99.90;;;;;;3572628;40;20079;-86
2021/05/26 05:40:06;;;;;;;6.25;2.10;;;11.50;99.90;;;;;;3574274;40;20296;-86
2021/05/26 05:42:33;;;;;;;5.97;2.08;;;11.50;99.90;;;;;;3574130;40;20342;-86
2021/05/26 05:44:59;;;;;;;3.75;1.90;;;11.60;99.90;;;;;;3574817;40;20059;-87
2021/05/26 05:47:24;;;;;;;3.10;1.70;;;11.70;99.90;;;;;;3574317;40;20057;-87
2021/05/26 05:49:50;;;;;;;4.80;1.73;;;11.80;99.90;;;;;;3576453;40;20053;-87
2021/05/26 05:52:15;;;;;;;5.03;1.60;;;11.90;99.90;;;;;;3573696;40;20206;-88
2021/05/26 05:54:41;;;;;;;7.03;1.65;;;12.00;99.90;;;;;;3574278;40;20052;-87
2021/05/26 05:57:08;;;;;;;4.30;1.35;;;12.30;99.90;;;;;;3574459;40;20052;-88
2021/05/26 05:59:33;;;;;;;4.25;1.45;;;12.60;99.90;;;;;;3574184;40;20049;-87
2021/05/26 06:01:59;;;;;;;5.85;1.80;;;12.50;99.90;;;;;;3573613;40;20596;-88
2021/05/26 06:04:25;;;;;;;5.82;1.30;;;12.60;99.90;;;;;;3573765;40;20066;-86
2021/05/26 06:06:51;;;;;;;4.18;1.25;;;12.60;99.90;;;;;;3574411;40;20119;-86
2021/05/26 06:09:17;;;;;;;3.30;1.20;;;12.70;99.90;;;;;;3573073;40;20060;-87
2021/05/26 06:11:43;;;;;;;5.03;1.70;;;12.80;99.90;;;;;;3569770;40;20411;-86
2021/05/26 06:14:10;;;;;;;5.82;1.45;;;13.10;99.90;;;;;;3571193;40;20065;-88
2021/05/26 06:16:37;;;;;;;4.65;0.95;;;13.10;99.90;;;;;;3576278;40;20056;-87
2021/05/26 06:19:04;;;;;;;6.65;1.40;;;13.10;99.90;;;;;;3575144;40;20048;-89
2021/05/26 06:21:30;;;;;;;4.18;2.40;;;12.80;99.90;;;;;;3570803;40;20304;-87
2021/05/26 06:23:56;;;;;;;3.90;1.50;;;13.30;99.90;;;;;;3576255;40;20071;-87
2021/05/26 06:26:22;;;;;;;3.60;1.27;;;13.60;99.90;;;;;;3567772;40;20475;-86
2021/05/26 06:28:48;;;;;;;1.55;0.90;;;13.70;99.90;;;;;;3568375;40;20127;-89
2021/05/26 06:31:15;;;;;;;3.35;0.90;;;14.00;99.90;;;;;;3571078;40;20048;-86
2021/05/26 06:33:44;;;;;;;3.40;0.90;;;13.80;99.90;;;;;;3571560;40;20135;-89
2021/05/26 06:36:10;;;;;;;2.30;1.10;;;13.70;99.90;;;;;;3564900;40;20065;-87
2021/05/26 06:38:37;;;;;;;5.07;1.00;;;13.70;99.90;;;;;;3566267;40;20408;-89
2021/05/26 06:41:03;;;;;;;5.68;0.98;;;13.90;99.90;;;;;;3573756;40;20394;-88
2021/05/26 06:43:30;;;;;;;3.63;1.10;;;13.90;99.90;;;;;;3572592;40;20061;-87
2021/05/26 06:45:56;;;;;;;3.08;0.85;;;14.20;99.90;;;;;;3569527;40;20306;-87
2021/05/26 06:48:23;;;;;;;6.28;1.08;;;14.50;99.90;;;;;;3572139;40;20080;-86
2021/05/26 06:50:48;;;;;;;3.60;0.93;;;14.60;99.90;;;;;;3574964;40;20049;-87
2021/05/26 06:53:14;;;;;;;1.23;0.68;;;14.60;99.90;;;;;;3574582;40;20334;-87
2021/05/26 06:55:41;;;;;;;3.75;1.02;;;14.50;99.90;;;;;;3569681;40;20049;-87
2021/05/26 06:58:06;;;;;;;2.58;0.70;;;14.50;99.90;;;;;;3572689;40;20060;-88
2021/05/26 07:00:34;;;;;;;1.73;0.82;;;14.70;99.90;;;;;;3572676;40;20053;-88
2021/05/26 07:02:59;;;;;;;1.65;0.40;;;14.60;99.90;;;;;;3563767;40;20049;-89
2021/05/26 07:05:27;;;;;;;2.17;0.80;;;14.80;99.90;;;;;;3565611;40;20431;-88
2021/05/26 07:07:53;;;;;;;2.95;0.88;;;14.70;99.90;;;;;;3573989;40;20092;-88
2021/05/26 07:10:19;;;;;;;1.40;0.55;;;14.70;99.90;;;;;;3574417;40;20073;-87
2021/05/26 07:12:46;;;;;;;3.58;0.75;;;14.60;99.90;;;;;;3570147;40;20053;-88
2021/05/26 07:15:16;;;;;;;1.77;0.60;;;14.70;99.90;;;;;;3566198;40;20291;-87
2021/05/26 07:17:42;;;;;;;1.40;0.30;;;14.80;99.90;;;;;;3571461;40;20139;-87
2021/05/26 07:20:08;;;;;;;1.48;0.50;;;15.10;99.90;;;;;;3576713;40;20064;-89
2021/05/26 07:22:34;;;;;;;3.47;0.57;;;14.90;99.90;;;;;;3574296;40;20127;-89
2021/05/26 07:25:00;;;;;;;3.80;0.60;;;15.30;99.90;;;;;;3578855;40;20615;-91
2021/05/26 07:27:25;;;;;;;2.65;0.55;;;15.00;99.90;;;;;;3575416;40;20041;-90
2021/05/26 07:29:51;;;;;;;1.65;0.60;;;15.20;99.90;;;;;;3583206;40;20021;-91
2021/05/26 07:32:17;;;;;;;2.35;0.70;;;15.10;99.90;;;;;;3578204;40;20099;-92
2021/05/26 07:34:43;;;;;;;4.20;2.17;;;14.90;99.90;;;;;;3583238;39;20479;-90
2021/05/26 07:37:08;;;;;;;4.30;0.70;;;14.50;99.90;;;;;;3582476;40;20040;-91
2021/05/26 07:39:35;;;;;;;1.58;0.75;;;14.90;99.90;;;;;;3588441;40;20041;-89
2021/05/26 07:42:05;;;;;;;1.88;0.57;;;14.80;99.90;;;;;;3583296;40;20120;-92
2021/05/26 07:44:32;;;;;;;1.25;0.40;;;14.90;99.90;;;;;;3585945;40;20051;-87
2021/05/26 07:46:58;;;;;;;2.45;0.65;;;14.90;99.90;;;;;;3575068;40;20069;-88
2021/05/26 07:49:24;;;;;;;2.15;0.80;;;14.60;99.90;;;;;;3583054;40;20059;-88
2021/05/26 07:51:52;;;;;;;1.08;0.57;;;14.80;99.90;;;;;;3585940;40;20229;-86
2021/05/26 07:54:25;;;;;;;3.13;0.65;;;14.90;99.90;;;;;;3579547;40;20332;-88
2021/05/26 07:56:50;;;;;;;;;;;15.00;99.90;;;;;;3578359;40;20076;-84
2021/05/26 07:59:16;;;;;;;1.73;0.40;;;15.20;99.90;;;;;;3576298;40;19944;-84
2021/05/26 08:01:42;;;;;;;1.70;0.47;;;15.30;99.90;;;;;;3575158;40;20190;-85
2021/05/26 08:04:09;;;;;;;2.83;0.82;;;15.20;99.90;;;;;;3572575;40;20041;-82
2021/05/26 08:06:35;;;;;;;1.50;0.30;;;15.50;99.90;;;;;;3568708;40;20121;-85
2021/05/26 08:09:01;;;;;;;1.60;0.43;;;15.50;99.90;;;;;;3574511;40;20049;-85
2021/05/26 08:11:27;;;;;;;1.92;0.65;;;15.40;99.90;;;;;;3573555;40;20323;-84
2021/05/26 08:13:52;;;;;;;1.05;0.50;;;15.10;99.90;;;;;;3574954;40;20057;-84
2021/05/26 08:16:19;;;;;;;1.77;0.95;;;15.60;99.90;;;;;;3573692;40;20089;-83
2021/05/26 08:18:44;;;;;;;1.40;0.70;;;15.30;99.90;;;;;;3572653;40;20048;-83
2021/05/26 08:21:11;;;;;;;0.60;0.40;;;15.60;99.90;;;;;;3573114;40;20053;-81
2021/05/26 08:23:37;;;;;;;2.05;0.70;;;15.70;99.90;;;;;;3574368;40;20126;-82
2021/05/26 08:26:03;;;;;;;2.90;0.43;;;15.80;99.90;;;;;;3573902;40;20312;-83
2021/05/26 08:28:28;;;;;;;2.20;0.50;;;16.00;99.90;;;;;;3573070;40;20053;-82
2021/05/26 08:30:54;;;;;;;0.70;0.30;;;15.80;99.90;;;;;;3571074;40;20085;-84
2021/05/26 08:33:20;;;;;;;4.50;0.57;;;15.60;99.90;;;;;;3568611;40;20418;-84
2021/05/26 08:35:45;;;;;;;3.33;0.32;;;15.70;99.90;;;;;;3573483;40;20041;-84
2021/05/26 08:38:11;;;;;;;4.18;0.95;;;15.60;99.90;;;;;;3573924;40;20061;-84
2021/05/26 08:40:37;;;;;;;1.80;0.55;;;15.70;99.90;;;;;;3572385;40;20496;-83
2021/05/26 08:43:03;;;;;;;0.85;0.40;;;16.00;99.90;;;;;;3572141;40;20052;-84
2021/05/26 08:45:29;;;;;;;4.07;0.50;;;16.20;99.90;;;;;;3568254;40;20066;-86
2021/05/26 08:47:59;;;;;;;2.10;1.33;;;15.90;99.90;;;;;;3570940;40;20049;-84
2021/05/26 08:50:25;;;;;;;1.17;0.60;;;16.00;99.90;;;;;;3573732;40;20493;-82
2021/05/26 08:52:51;;;;;;;3.28;1.23;;;15.80;99.90;;;;;;3573657;40;20053;-84
2021/05/26 08:55:17;;;;;;;1.10;0.50;;;15.80;99.90;;;;;;3573495;40;20331;-82
2021/05/26 08:57:43;;;;;;;2.67;0.95;;;16.10;99.90;;;;;;3564215;40;20093;-83
2021/05/26 09:00:09;;;;;;;0.55;0.52;;;16.30;99.90;;;;;;3567212;40;20049;-83
2021/05/26 09:02:35;;;;;;;2.83;0.88;;;17.00;99.90;;;;;;3564307;40;20378;-83
2021/05/26 09:05:01;;;;;;;0.75;0.40;;;17.10;99.90;;;;;;3572008;40;20288;-83
2021/05/26 09:07:30;;;;;;;2.00;0.85;;;16.60;99.90;;;;;;3564355;40;20065;-83
2021/05/26 09:10:06;;;;;;;1.50;0.68;;;16.40;99.90;;;;;;3569229;40;20426;-83
2021/05/26 09:12:33;;;;;;;2.65;0.70;;;16.30;99.90;;;;;;3569561;40;20056;-85
2021/05/26 09:15:08;;;;;;;2.20;0.70;;;15.80;99.90;;;;;;3571636;40;20534;-82
2021/05/26 09:17:35;;;;;;;2.25;0.40;;;15.90;99.90;;;;;;3571283;40;20555;-83
2021/05/26 09:20:29;;;;;;;2.67;0.50;;;16.00;99.90;;;;;;3571833;40;20049;-82
2021/05/26 09:23:09;;;;;;;2.15;0.90;;;16.30;99.90;;;;;;3563902;40;20396;-83
2021/05/26 09:25:50;;;;;;;3.60;1.00;;;16.30;99.90;;;;;;3563915;40;20041;-84
2021/05/26 09:28:15;;;;;;;0.75;0.45;;;16.10;99.90;;;;;;3565159;40;20323;-82
2021/05/26 09:30:42;;;;;;;3.40;0.63;;;16.80;99.90;;;;;;3564214;40;20057;-83
2021/05/26 09:33:43;;;;;;;0.73;0.52;;;16.80;99.90;;;;;;3563701;40;20067;-83
2021/05/26 09:36:12;;;;;;;4.75;1.63;;;16.50;99.90;;;;;;3563481;40;20045;-84
2021/05/26 09:38:43;;;;;;;3.13;1.85;;;16.40;99.90;;;;;;3565361;40;20045;-83
2021/05/26 09:41:09;;;;;;;4.50;2.70;;;16.50;99.90;;;;;;3570566;40;20064;-82
2021/05/26 09:43:42;;;;;;;2.88;0.73;;;16.90;99.90;;;;;;3573891;40;20056;-84
2021/05/26 09:46:23;;;;;;;2.17;0.95;;;16.40;99.90;;;;;;3567798;40;20138;-83
2021/05/26 09:49:26;;;;;;;2.88;0.80;;;16.20;99.90;;;;;;3565009;40;20049;-84
2021/05/26 09:51:58;;;;;;;4.63;1.30;;;16.10;99.90;;;;;;3564813;40;20053;-82
2021/05/26 09:54:28;;;;;;;4.10;1.03;;;16.20;99.90;;;;;;3575990;40;20171;-85
2021/05/26 09:57:15;;;;;;;5.10;1.25;;;15.60;99.90;;;;;;3573304;40;20073;-84
2021/05/26 09:59:42;;;;;;;5.22;1.38;;;15.40;99.90;;;;;;3573029;40;20140;-81
2021/05/26 10:02:09;;;;;;;4.88;2.05;;;15.40;99.90;;;;;;3580243;40;20304;-84
2021/05/26 10:04:41;;;;;;;4.45;1.30;;;15.50;99.90;;;;;;3582592;40;20381;-83
2021/05/26 10:07:08;;;;;;;5.43;1.23;;;16.70;99.90;;;;;;3564246;40;20324;-83
2021/05/26 10:09:34;;;;;;;5.10;1.50;;;17.20;99.90;;;;;;3570096;40;20084;-85
2021/05/26 10:12:01;;;;;;;3.00;0.93;;;17.20;99.90;;;;;;3566171;40;20045;-86
2021/05/26 10:14:28;;;;;;;4.22;1.17;;;17.10;99.90;;;;;;3572962;40;20096;-84
2021/05/26 10:16:55;;;;;;;4.97;2.25;;;17.10;99.90;;;;;;3572585;40;20462;-85
2021/05/26 10:19:23;;;;;;;7.43;2.13;;;18.00;99.90;;;;;;3572091;40;20072;-83
2021/05/26 10:21:49;;;;;;;4.55;1.00;;;17.80;99.90;;;;;;3571312;40;20037;-84
2021/05/26 10:24:22;;;;;;;6.97;1.45;;;17.30;99.90;;;;;;3573412;40;20060;-84
2021/05/26 10:26:55;;;;;;;5.35;1.55;;;17.00;99.90;;;;;;3566717;40;20045;-83
2021/05/26 10:29:30;;;;;;;4.05;1.90;;;17.30;99.90;;;;;;3565810;40;20444;-82
2021/05/26 10:31:59;;;;;;;5.32;1.40;;;16.90;99.90;;;;;;3566472;40;20058;-84
2021/05/26 10:34:54;;;;;;;4.85;1.70;;;17.50;99.90;;;;;;3568160;40;20053;-83
2021/05/26 10:37:35;;;;;;;5.60;1.85;;;17.80;99.90;;;;;;3568109;40;20049;-84
2021/05/26 10:40:21;;;;;;;4.22;1.27;;;17.60;99.90;;;;;;3572772;40;20052;-83
2021/05/26 10:42:47;;;;;;;3.40;1.00;;;16.90;99.90;;;;;;3563560;40;20383;-83
2021/05/26 10:45:12;;;;;;;2.90;1.02;;;16.70;99.90;;;;;;3568584;40;20096;-84
2021/05/26 10:47:39;;;;;;;4.88;1.63;;;16.90;99.90;;;;;;3569877;40;20089;-83
2021/05/26 10:50:04;;;;;;;3.00;0.85;;;17.60;99.90;;;;;;3575035;40;20056;-89
2021/05/26 10:52:56;;;;;;;3.15;1.50;;;17.70;99.90;;;;;;3568967;40;20037;-87
2021/05/26 10:55:35;;;;;;;3.67;1.13;;;16.90;99.90;;;;;;3578014;40;20129;-89
2021/05/26 10:58:26;;;;;;;3.65;1.20;;;17.40;99.90;;;;;;3579057;40;20473;-86
2021/05/26 11:00:55;;;;;;;4.78;1.00;;;17.20;99.90;;;;;;3581786;40;20057;-88
2021/05/26 11:03:24;;;;;;;2.08;0.98;;;17.30;99.90;;;;;;3579894;40;20064;-87
2021/05/26 11:05:59;;;;;;;2.67;1.35;;;18.10;99.90;;;;;;3580048;40;20162;-88
2021/05/26 11:08:46;;;;;;;2.40;0.80;;;18.50;97.80;;;;;;3569382;40;20045;-89
2021/05/26 11:11:33;;;;;;;3.03;0.80;;;18.50;98.00;;;;;;3572310;40;20194;-89
2021/05/26 11:14:02;;;;;;;6.65;1.48;;;18.30;98.70;;;;;;3579237;40;20061;-88
2021/05/26 11:16:40;;;;;;;3.22;0.60;;;18.10;98.60;;;;;;3569099;40;20045;-88
2021/05/26 11:19:29;;;;;;;2.03;0.80;;;17.70;99.90;;;;;;3578833;40;20369;-89
2021/05/26 11:22:13;;;;;;;2.08;0.60;;;17.00;99.90;;;;;;3578724;40;20048;-87
2021/05/26 11:24:41;;;;;;;3.55;0.60;;;17.20;99.90;;;;;;3581904;40;20049;-86
2021/05/26 11:27:19;;;;;;;3.22;0.60;;;16.90;99.90;;;;;;3578325;40;20053;-89
2021/05/26 11:29:49;;;;;;;3.55;0.77;;;16.40;99.90;;;;;;3572742;40;20497;-88
2021/05/26 11:32:17;;;;;;;2.22;0.93;;;16.70;99.90;;;;;;3571724;40;20084;-88
2021/05/26 11:34:44;;;;;;;1.30;0.77;;;16.30;99.90;;;;;;3571007;40;20065;-89
2021/05/26 11:37:11;;;;;;;3.83;0.95;;;16.30;99.90;;;;;;3570499;40;20338;-87
2021/05/26 11:39:37;;;;;;;3.67;0.93;;;16.10;99.90;;;;;;3572643;40;20097;-86
2021/05/26 11:42:21;;;;;;;4.78;1.35;;;15.80;99.90;;;;;;3584054;40;20041;-88
2021/05/26 11:44:57;;;;;;;5.20;1.40;;;15.50;99.90;;;;;;3577292;40;20052;-87
2021/05/26 11:47:30;;;;;;;5.32;1.35;;;15.40;99.90;;;;;;3583006;40;20048;-89
2021/05/26 11:50:00;;;;;;;6.30;1.30;;;15.20;99.90;;;;;;3577767;40;20063;-88
2021/05/26 11:52:26;;;;;;;3.05;1.25;;;15.40;99.90;;;;;;3577833;40;20053;-87
2021/05/26 11:54:58;;;;;;;2.50;1.10;;;15.10;99.90;;;;;;3578340;40;20052;-89
2021/05/26 11:57:39;;;;;;;6.43;1.35;;;15.30;99.90;;;;;;3572463;40;20056;-90
2021/05/26 12:00:10;;;;;;;11.40;1.95;;;15.50;99.90;;;;;;3576843;40;20073;-86
2021/05/26 12:02:50;;;;;;;7.55;1.95;;;15.30;99.90;;;;;;3569509;40;20042;-88
2021/05/26 12:05:41;;;;;;;8.18;1.30;;;15.10;99.90;;;;;;3583053;40;20430;-87
2021/05/26 12:08:17;;;;;;;7.82;1.77;;;15.00;99.90;;;;;;3568424;40;20408;-88
2021/05/26 12:10:51;;;;;;;7.47;1.40;;;14.60;99.90;;;;;;3577675;40;20048;-87
2021/05/26 12:13:21;;;;;;;6.25;1.55;;;14.80;99.90;;;;;;3577472;40;20048;-87
2021/05/26 12:15:49;;;;;;;9.25;2.35;;;15.00;99.90;;;;;;3576795;40;20095;-90
2021/05/26 12:18:15;;;;;;;7.18;2.05;;;14.50;99.90;;;;;;3567749;40;20435;-89
2021/05/26 12:20:46;;;;;;;7.45;1.98;;;14.70;99.90;;;;;;3583188;40;20085;-87
2021/05/26 12:23:12;;;;;;;6.50;1.65;;;14.50;99.90;;;;;;3568712;40;20470;-88
2021/05/26 12:25:47;;;;;;;7.45;1.70;;;14.60;99.90;;;;;;3576087;40;20296;-87
2021/05/26 12:28:14;;;;;;;4.25;1.35;;;14.60;99.90;;;;;;3572812;40;20129;-87
2021/05/26 12:30:40;;;;;;;5.47;1.70;;;14.50;99.90;;;;;;3567500;40;20044;-87
2021/05/26 12:33:18;;;;;;;5.28;1.23;;;14.10;99.90;;;;;;3567873;40;20068;-87
2021/05/26 12:35:44;;;;;;;6.35;1.27;;;14.10;99.90;;;;;;3574186;40;20138;-88
2021/05/26 12:38:20;;;;;;;5.00;1.40;;;14.30;99.90;;;;;;3578551;40;20053;-89
2021/05/26 12:40:47;;;;;;;7.63;1.88;;;14.30;99.90;;;;;;3576200;40;20049;-89
2021/05/26 12:43:28;;;;;;;6.90;1.60;;;14.10;99.90;;;;;;3568222;40;20057;-89
2021/05/26 12:45:54;;;;;;;9.57;1.95;;;14.00;99.90;;;;;;3575063;40;20060;-89
2021/05/26 12:48:21;;;;;;;6.68;3.28;;;13.70;99.90;;;;;;3567176;40;20065;-88
2021/05/26 12:50:48;;;;;;;9.48;3.63;;;13.90;99.90;;;;;;3577650;40;20045;-87
2021/05/26 12:53:16;;;;;;;6.25;2.30;;;13.70;99.90;;;;;;3567405;40;20074;-88